宮崎空港の過去48時間の天気

宮崎空港 (Miyazaki)

現在時刻: 10/20 18:43 JST (10/20 09:43 UTC) 以下の時間は現地時間です。

過去48時間のMETAR気象情報
時間 風向 風速(m/s) 視程 気温(℃) 湿度(%) 気圧(hPa) 天気現象
20 18:00 北北東 9 10km以上 22 38 1018
20 17:00 北北東 8 10km以上 22 43 1018
20 16:00 北東 4 10km以上 23 41 1019
20 15:00 東北東 5 10km以上 23 44 1018
20 14:00 北東 5 10km以上 23 47 1019
20 13:00 北東 5 10km以上 23 53 1019
20 12:00 北東 3 10km以上 22 50 1020
20 11:00 北北東 5 10km以上 21 49 1021
20 10:00 北北東 4 10km以上 20 53 1021
20 09:00 北西 3 10km以上 19 56 1021
20 08:00 西 3 10km以上 16 77 1021
20 07:00 西 3 10km以上 13 88 1020
20 06:10 西北西 3 10km以上 12 88 1020
19 21:00 西 4 10km以上 18 68 1019
19 20:00 西 4 10km以上 19 64 1018
19 19:00 西 3 10km以上 19 64 1018
19 18:00 南東 2 10km以上 20 60 1017
19 17:00 東南東 3 10km以上 21 49 1017
19 16:00 東南東 4 10km以上 22 43 1016
19 15:00 4 10km以上 23 44 1016
19 14:00 南東 4 10km以上 23 41 1016
19 13:00 2 10km以上 24 29 1016
19 12:00 北北西 2 10km以上 23 41 1017
19 11:00 西北西 2 10km以上 21 46 1018
19 10:00 西 4 10km以上 21 53 1018
19 09:00 西 6 10km以上 19 60 1019
19 08:00 西 6 10km以上 17 68 1018
19 07:00 西 6 10km以上 16 72 1017
19 06:10 西 6 10km以上 15 77 1016
18 21:00 西 3 10km以上 18 73 1016
18 20:00 西 4 10km以上 18 83 1015
18 19:00 南西 2 10km以上 19 78 1015
RJFM 200900Z 03018KT 9999 FEW030 SCT/// 22/07 Q1018
RJFM 200800Z 03016KT 9999 FEW030 22/09 Q1018
RJFM 200700Z 05008KT 9999 FEW030 23/09 Q1019
RJFM 200600Z 06009KT 9999 FEW030 23/10 Q1018
RJFM 200500Z 05009KT 9999 FEW030 SCT/// 23/11 Q1019
RJFM 200400Z 04009KT 9999 FEW030 SCT/// 23/13 Q1019
RJFM 200300Z 04006KT 350V070 9999 FEW030 22/11 Q1020
RJFM 200200Z 03009KT 9999 FEW030 21/10 Q1021
RJFM 200100Z 02007KT 340V060 9999 FEW030 20/10 Q1021
RJFM 200000Z 31005KT 9999 FEW030 19/10 Q1021
RJFM 192300Z 28006KT 9999 FEW030 16/12 Q1021
RJFM 192200Z 28006KT 9999 FEW030 13/11 Q1020
RJFM 192110Z 30006KT 9999 FEW030 12/10 Q1020 RMK 1CU030 A3013
RJFM 191200Z 28007KT 9999 FEW030 BKN/// 18/12 Q1019
RJFM 191100Z 27008KT 9999 FEW030 BKN/// 19/12 Q1018
RJFM 191000Z 26005KT 9999 FEW030 BKN/// 19/12 Q1018
RJFM 190900Z 14003KT 080V190 9999 FEW030 BKN/// 20/12 Q1017
RJFM 190800Z 12005KT 050V160 9999 FEW030 SCT070 BKN/// 21/10 Q1017
RJFM 190700Z 12007KT 9999 FEW030 SCT070 BKN/// 22/09 Q1016
RJFM 190600Z 10008KT 9999 FEW030 BKN/// 23/10 Q1016
RJFM 190500Z 13007KT 9999 FEW030 BKN/// 23/09 Q1016
RJFM 190400Z 10004KT 050V140 9999 FEW030 SCT/// 24/05 Q1016
RJFM 190300Z 34004KT 250V060 9999 FEW030 23/09 Q1017
RJFM 190200Z 29004KT 210V020 9999 FEW030 21/09 Q1018
RJFM 190100Z 28008KT 250V320 9999 FEW030 SCT/// 21/11 Q1018
RJFM 190000Z 26011KT 9999 FEW030 19/11 Q1019
RJFM 182300Z 27011KT 9999 FEW030 17/11 Q1018
RJFM 182200Z 27011KT 9999 FEW030 16/11 Q1017
RJFM 182110Z 27012KT 9999 FEW030 15/11 Q1016 RMK 1CU030 A3003
RJFM 181200Z 28006KT 9999 FEW030 SCT040 18/13 Q1016
RJFM 181100Z 27008KT 9999 FEW030 SCT040 18/15 Q1015
RJFM 181000Z 23004KT 9999 FEW030 19/15 Q1015